ENMH

Mehamn Airport

Mehamn, Norway
METAR ENMH 162120Z 23024KT 9999 SCT030 M05/M09 Q1015
Observed Flight Rules
Dec-16 @ 21:20 UTC (50 minutes ago) Visual Flight Rules
Wind Visibility Clouds
230° at 24 knots 10,000+ meters
  • Scattered at 3,000' AGL
Temperatures Readings
Current -5°C / 23°F
Dewpoint -9°C / 16°F
Humidity 74%
Altimeter 29.97" Hg
Pressure 1015 hPa
Elevation 13
METAR ENMH 162120Z 23024KT 9999 SCT030 M05/M09 Q1015
Observed Flight Rules
Dec-16 @ 21:20 UTC
(50 minutes ago)
VFR
Wind Visibility
230° at 24 knots 10,000+ meters
Clouds
  • Scattered at 3,000' AGL
Temperature Dewpoint
-5°C / 23°F -9°C / 16°F
Humidity Altimeter Pressure
74% 29.97" Hg 1015 hPa